F/V Fleur Des Vagues — FPEJ — position and weather

sailwx.info

Track history (hours):
 
Tides and Currents Weather Stations Pressure Air Temp Water Temp Dewpoint Dewpoint Depression Visibility Wind Speed Wind Dir Waves Ship Positions

F/V Fleur Des Vagues

Last reported at 2014-Oct-21 13:33 UTC. Time now 2014-Oct-21 13:46 UTC.
Position N 46°30' W 001°47'.

Length 16 m.

Type: Fishing. MMSI: 227893000.

Date/timePositionNaut miles runAvg speedWind from/ knotsBaromVisibWave heightAir tempDewpointWater temp
2014-Oct-21 13:33N 46°30' W 001°47'0 0.0
2014-Oct-21 12:33N 46°30' W 001°47'5 4.6
2014-Oct-21 11:33N 46°25' W 001°49'9 9.4
2014-Oct-21 10:33N 46°17' W 001°54'2 2.3
2014-Oct-21 09:32N 46°14' W 001°53'2 1.9
2014-Oct-21 08:33N 46°16' W 001°54'0 0.4
2014-Oct-21 07:33N 46°16' W 001°54'0 0.5
2014-Oct-21 06:33N 46°16' W 001°54'0 0.3
2014-Oct-21 05:33N 46°16' W 001°54'2 1.8
2014-Oct-21 04:33N 46°15' W 001°52'2 1.8
2014-Oct-21 03:33N 46°16' W 001°53'0 0.4
2014-Oct-21 02:33N 46°16' W 001°53'1 0.7
2014-Oct-21 01:33N 46°16' W 001°54'3 3.0
2014-Oct-21 00:33N 46°19' W 001°52'9 9.4
2014-Oct-20 23:33N 46°28' W 001°47'2 2.0
2014-Oct-20 22:33N 46°30' W 001°47'0 0.0
2014-Oct-20 21:33N 46°30' W 001°47'0 0.0
2014-Oct-20 20:33N 46°30' W 001°47'0 0.0
2014-Oct-20 19:34N 46°30' W 001°47'0 0.0
2014-Oct-20 18:33N 46°30' W 001°47'0 0.0
2014-Oct-20 17:33N 46°30' W 001°47'0 0.0
2014-Oct-20 16:34N 46°30' W 001°47'0 0.0
2014-Oct-20 15:33N 46°30' W 001°47'0 0.0
2014-Oct-20 14:34N 46°30' W 001°47'0 0.2
2014-Oct-20 13:33N 46°30' W 001°47'5 5.3
2014-Oct-20 12:33N 46°25' W 001°49'9 8.5
2014-Oct-20 11:27N 46°16' W 001°54'0 0.2
2014-Oct-20 10:29N 46°16' W 001°54'1 1.3
2014-Oct-20 09:33N 46°15' W 001°55'1 0.9
2014-Oct-20 08:27N 46°16' W 001°55'0 0.4
2014-Oct-20 07:33N 46°16' W 001°54'0 0.2
2014-Oct-20 06:33N 46°16' W 001°54'0 0.4
2014-Oct-20 05:33N 46°16' W 001°54'1 1.3
2014-Oct-20 04:27N 46°15' W 001°54'2 1.8
2014-Oct-20 03:34N 46°16' W 001°55'1 1.4
2014-Oct-20 02:33N 46°16' W 001°53'1 0.4
2014-Oct-20 01:15N 46°16' W 001°53'2 3.0
2014-Oct-20 00:33N 46°18' W 001°53'9 9.5
2014-Oct-19 23:33N 46°27' W 001°48'3 3.0
2014-Oct-19 22:34N 46°30' W 001°47'0 0.0
2014-Oct-19 21:34N 46°30' W 001°47'0 0.0
2014-Oct-19 20:33N 46°30' W 001°47'0 0.0
2014-Oct-19 19:33N 46°30' W 001°47'0 0.0
2014-Oct-19 18:33N 46°30' W 001°47'0 0.0
2014-Oct-19 17:33N 46°30' W 001°47'0 0.0
2014-Oct-19 16:33N 46°30' W 001°47'0 0.0
2014-Oct-19 15:33N 46°30' W 001°47'0 0.0
2014-Oct-19 14:34N 46°30' W 001°47'1 0.6
2014-Oct-19 13:33N 46°29' W 001°47'9 9.3
2014-Oct-19 12:33N 46°20' W 001°50'5 4.7
2014-Oct-19 11:33N 46°16' W 001°53'1 0.6
2014-Oct-19 10:33N 46°16' W 001°54'1 0.5
2014-Oct-19 09:33N 46°16' W 001°54'1 0.7
2014-Oct-19 08:33N 46°16' W 001°55'0 0.4
2014-Oct-19 07:33N 46°16' W 001°54'1 1.0
2014-Oct-19 06:32N 46°17' W 001°55'1 1.2
2014-Oct-19 05:33N 46°16' W 001°54'2 1.5
2014-Oct-19 04:33N 46°17' W 001°55'2 1.6
2014-Oct-19 03:31N 46°16' W 001°53'1 1.5
2014-Oct-19 02:33N 46°17' W 001°54'2 1.5
2014-Oct-19 01:33N 46°16' W 001°53'0 0.2
2014-Oct-19 00:33N 46°16' W 001°53'2 1.6
2014-Oct-18 23:33N 46°17' W 001°54'1 0.5
2014-Oct-18 22:23N 46°18' W 001°54'0 0.0
2014-Oct-18 21:33N 46°18' W 001°54'0 0.0
2014-Oct-18 20:33N 46°18' W 001°54'0 0.0
2014-Oct-18 19:33N 46°18' W 001°54'0 0.0
2014-Oct-18 18:33N 46°18' W 001°54'0 0.0
2014-Oct-18 17:33N 46°18' W 001°54'0 0.0
2014-Oct-18 16:26N 46°18' W 001°54'0 0.0
2014-Oct-18 15:32N 46°18' W 001°54'0 0.0
2014-Oct-18 14:26N 46°18' W 001°54'2 2.5
2014-Oct-18 13:31N 46°15' W 001°54'1 1.5
2014-Oct-18 12:33N 46°17' W 001°54'1 1.0
2014-Oct-18 11:33N 46°16' W 001°54'2 2.1
2014-Oct-18 10:33N 46°17' W 001°56'0 0.1
2014-Oct-18 09:32N 46°17' W 001°56'1 0.7
2014-Oct-18 08:33N 46°17' W 001°55'0 0.3
2014-Oct-18 07:33N 46°17' W 001°55'0 0.5
2014-Oct-18 06:33N 46°17' W 001°54'1 0.7
2014-Oct-18 05:33N 46°16' W 001°54'1 1.2
2014-Oct-18 04:32N 46°17' W 001°55'1 0.7
2014-Oct-18 03:33N 46°18' W 001°55'1 0.8
2014-Oct-18 02:33N 46°17' W 001°54'3 2.5
2014-Oct-18 01:33N 46°20' W 001°54'9 8.8
2014-Oct-18 00:33N 46°28' W 001°48'2 2.2
2014-Oct-17 23:33N 46°30' W 001°47'0 0.0
2014-Oct-17 22:34N 46°30' W 001°47'0 0.0
2014-Oct-17 21:34N 46°30' W 001°47'0 0.0
2014-Oct-17 20:33N 46°30' W 001°47'0 0.0
2014-Oct-17 19:34N 46°30' W 001°47'1 1.2
2014-Oct-17 18:33N 46°29' W 001°47'1010.1
2014-Oct-17 17:33N 46°20' W 001°55'4 4.4
2014-Oct-17 16:33N 46°16' W 001°54'1 0.5
2014-Oct-17 15:33N 46°16' W 001°55'1 1.0
2014-Oct-17 14:33N 46°17' W 001°54'1 0.7
2014-Oct-17 13:33N 46°17' W 001°55'2 1.9
2014-Oct-17 12:34N 46°15' W 001°54'1 1.2
2014-Oct-17 11:31N 46°16' W 001°55'1 1.2
2014-Oct-17 10:33N 46°15' W 001°54'1 0.9
2014-Oct-17 09:33N 46°16' W 001°54'1 0.8
2014-Oct-17 08:33N 46°17' W 001°54'1 0.7
2014-Oct-17 07:33N 46°16' W 001°54'15 1.3
2014-Oct-16 20:16N 46°30' W 001°47'0 0.0
2014-Oct-16 19:33N 46°30' W 001°47'0 0.0
2014-Oct-16 18:33N 46°30' W 001°47'0 0.0
2014-Oct-16 17:33N 46°30' W 001°47'0 0.0
2014-Oct-16 16:33N 46°30' W 001°47'0 0.0
2014-Oct-16 15:33N 46°30' W 001°47'3 3.3
2014-Oct-16 14:33N 46°27' W 001°48'10 9.7
2014-Oct-16 13:33N 46°18' W 001°53'1 1.5
2014-Oct-16 12:33N 46°16' W 001°55'3 2.3
2014-Oct-16 11:15N 46°15' W 001°58'2 1.1
2014-Oct-16 09:33N 46°17' W 002°00'2 1.6
2014-Oct-16 08:30N 46°15' W 001°59'2 0.6
2014-Oct-16 05:26N 46°17' W 001°60'1 1.1
2014-Oct-16 04:32N 46°16' W 001°59'0 0.3
2014-Oct-16 03:16N 46°16' W 001°58'1 2.1
2014-Oct-16 02:33N 46°17' W 001°59'9 8.8
2014-Oct-16 01:33N 46°24' W 001°51'6 6.3
2014-Oct-16 00:33N 46°30' W 001°47'0 0.0
2014-Oct-15 23:33N 46°30' W 001°47'0 0.0
2014-Oct-15 22:33N 46°30' W 001°47'0 0.0
2014-Oct-15 21:33N 46°30' W 001°47'0 0.0
2014-Oct-15 20:33N 46°30' W 001°47'0 0.0
2014-Oct-15 19:33N 46°30' W 001°47'0 0.0
2014-Oct-15 18:33N 46°30' W 001°47'0 0.0
2014-Oct-15 17:33N 46°30' W 001°47'0 0.0
2014-Oct-15 16:33N 46°30' W 001°47'0 0.0
2014-Oct-15 15:33N 46°30' W 001°47'0 0.0
2014-Oct-15 14:33N 46°30' W 001°47'0 0.0
2014-Oct-15 13:33N 46°30' W 001°47'0 0.0
2014-Oct-15 12:33N 46°30' W 001°47'0 0.0
2014-Oct-15 11:33N 46°30' W 001°47'7 7.0
2014-Oct-15 10:33N 46°24' W 001°53'9 2.0
2014-Oct-15 06:21N 46°17' W 001°60'1 1.4
2014-Oct-15 05:33N 46°16' W 001°59'1 0.8
2014-Oct-15 04:17N 46°17' W 001°60'1 1.3
2014-Oct-15 03:28N 46°16' W 001°59'3 1.5
2014-Oct-15 01:33N 46°19' W 001°58'9 9.0
2014-Oct-15 00:33N 46°26' W 001°50'4 4.3
2014-Oct-14 23:33N 46°30' W 001°47'0 0.0
2014-Oct-14 22:33N 46°30' W 001°47'0 0.0
2014-Oct-14 21:33N 46°30' W 001°47'0 0.0
2014-Oct-14 20:33N 46°30' W 001°47'0 0.0
2014-Oct-14 19:33N 46°30' W 001°47'0 0.0
2014-Oct-14 18:33N 46°30' W 001°47'0 0.0
2014-Oct-14 17:33N 46°30' W 001°47'0 0.0
2014-Oct-14 16:33N 46°30' W 001°47'0 0.0
2014-Oct-14 15:33N 46°30' W 001°47'0 0.0
2014-Oct-14 14:33N 46°30' W 001°47'0 0.0
2014-Oct-14 13:33N 46°30' W 001°47'5 4.6
2014-Oct-14 12:33N 46°26' W 001°50'12 1.7
2014-Oct-14 05:30N 46°16' W 001°59'1 1.0
2014-Oct-14 04:29N 46°17' W 001°60'1 1.4
2014-Oct-14 03:33N 46°16' W 001°59'3 1.3
2014-Oct-14 01:33N 46°18' W 001°58'9 9.4
2014-Oct-14 00:33N 46°26' W 001°50'4 4.5
2014-Oct-13 23:33N 46°30' W 001°47'0 0.0
2014-Oct-13 22:33N 46°30' W 001°47'0 0.0
2014-Oct-13 21:33N 46°30' W 001°47'0 0.0
2014-Oct-13 20:34N 46°30' W 001°47'0 0.0
2014-Oct-13 19:33N 46°30' W 001°47'0 0.0
2014-Oct-13 18:33N 46°30' W 001°47'0 0.0
2014-Oct-13 17:33N 46°30' W 001°47'0 0.0
2014-Oct-13 16:33N 46°30' W 001°47'0 0.0
2014-Oct-13 15:33N 46°30' W 001°47'0 0.0
2014-Oct-13 14:33N 46°30' W 001°47'8 7.9
2014-Oct-13 13:33N 46°23' W 001°53'9 8.5
2014-Oct-13 12:32N 46°15' W 001°59'2 1.8
2014-Oct-13 11:31N 46°17' W 001°60'3 3.5
2014-Oct-13 10:33N 46°19' W 001°55'8 7.8
2014-Oct-13 09:33N 46°25' W 001°48'5 5.2
2014-Oct-13 08:33N 46°30' W 001°47'0 0.0
2014-Oct-13 07:33N 46°30' W 001°47'0 0.2
2014-Oct-13 06:33N 46°30' W 001°47'  
Track history (hours):
 
Tides and Currents Weather Stations Pressure Air Temp Water Temp Dewpoint Dewpoint Depression Visibility Wind Speed Wind Dir Waves Ship Positions

F/V Fleur Des Vagues

Last reported at 2014-Oct-21 13:33 UTC. Time now 2014-Oct-21 13:46 UTC.
Position N 46°30' W 001°47'.

Length 16 m.

Type: Fishing. MMSI: 227893000.

Date/timePositionNaut miles runAvg speedWind from/ knotsBaromVisibWave heightAir tempDewpointWater temp
2014-Oct-21 13:33N 46°30' W 001°47'0 0.0
2014-Oct-21 12:33N 46°30' W 001°47'5 4.6
2014-Oct-21 11:33N 46°25' W 001°49'9 9.4
2014-Oct-21 10:33N 46°17' W 001°54'2 2.3
2014-Oct-21 09:32N 46°14' W 001°53'2 1.9
2014-Oct-21 08:33N 46°16' W 001°54'0 0.4
2014-Oct-21 07:33N 46°16' W 001°54'0 0.5
2014-Oct-21 06:33N 46°16' W 001°54'0 0.3
2014-Oct-21 05:33N 46°16' W 001°54'2 1.8
2014-Oct-21 04:33N 46°15' W 001°52'2 1.8
2014-Oct-21 03:33N 46°16' W 001°53'0 0.4
2014-Oct-21 02:33N 46°16' W 001°53'1 0.7
2014-Oct-21 01:33N 46°16' W 001°54'3 3.0
2014-Oct-21 00:33N 46°19' W 001°52'9 9.4
2014-Oct-20 23:33N 46°28' W 001°47'2 2.0
2014-Oct-20 22:33N 46°30' W 001°47'0 0.0
2014-Oct-20 21:33N 46°30' W 001°47'0 0.0
2014-Oct-20 20:33N 46°30' W 001°47'0 0.0
2014-Oct-20 19:34N 46°30' W 001°47'0 0.0
2014-Oct-20 18:33N 46°30' W 001°47'0 0.0
2014-Oct-20 17:33N 46°30' W 001°47'0 0.0
2014-Oct-20 16:34N 46°30' W 001°47'0 0.0
2014-Oct-20 15:33N 46°30' W 001°47'0 0.0
2014-Oct-20 14:34N 46°30' W 001°47'0 0.2
2014-Oct-20 13:33N 46°30' W 001°47'5 5.3
2014-Oct-20 12:33N 46°25' W 001°49'9 8.5
2014-Oct-20 11:27N 46°16' W 001°54'0 0.2
2014-Oct-20 10:29N 46°16' W 001°54'1 1.3
2014-Oct-20 09:33N 46°15' W 001°55'1 0.9
2014-Oct-20 08:27N 46°16' W 001°55'0 0.4
2014-Oct-20 07:33N 46°16' W 001°54'0 0.2
2014-Oct-20 06:33N 46°16' W 001°54'0 0.4
2014-Oct-20 05:33N 46°16' W 001°54'1 1.3
2014-Oct-20 04:27N 46°15' W 001°54'2 1.8
2014-Oct-20 03:34N 46°16' W 001°55'1 1.4
2014-Oct-20 02:33N 46°16' W 001°53'1 0.4
2014-Oct-20 01:15N 46°16' W 001°53'2 3.0
2014-Oct-20 00:33N 46°18' W 001°53'9 9.5
2014-Oct-19 23:33N 46°27' W 001°48'3 3.0
2014-Oct-19 22:34N 46°30' W 001°47'0 0.0
2014-Oct-19 21:34N 46°30' W 001°47'0 0.0
2014-Oct-19 20:33N 46°30' W 001°47'0 0.0
2014-Oct-19 19:33N 46°30' W 001°47'0 0.0
2014-Oct-19 18:33N 46°30' W 001°47'0 0.0
2014-Oct-19 17:33N 46°30' W 001°47'0 0.0
2014-Oct-19 16:33N 46°30' W 001°47'0 0.0
2014-Oct-19 15:33N 46°30' W 001°47'0 0.0
2014-Oct-19 14:34N 46°30' W 001°47'1 0.6
2014-Oct-19 13:33N 46°29' W 001°47'9 9.3
2014-Oct-19 12:33N 46°20' W 001°50'5 4.7
2014-Oct-19 11:33N 46°16' W 001°53'1 0.6
2014-Oct-19 10:33N 46°16' W 001°54'1 0.5
2014-Oct-19 09:33N 46°16' W 001°54'1 0.7
2014-Oct-19 08:33N 46°16' W 001°55'0 0.4
2014-Oct-19 07:33N 46°16' W 001°54'1 1.0
2014-Oct-19 06:32N 46°17' W 001°55'1 1.2
2014-Oct-19 05:33N 46°16' W 001°54'2 1.5
2014-Oct-19 04:33N 46°17' W 001°55'2 1.6
2014-Oct-19 03:31N 46°16' W 001°53'1 1.5
2014-Oct-19 02:33N 46°17' W 001°54'2 1.5
2014-Oct-19 01:33N 46°16' W 001°53'0 0.2
2014-Oct-19 00:33N 46°16' W 001°53'2 1.6
2014-Oct-18 23:33N 46°17' W 001°54'1 0.5
2014-Oct-18 22:23N 46°18' W 001°54'0 0.0
2014-Oct-18 21:33N 46°18' W 001°54'0 0.0
2014-Oct-18 20:33N 46°18' W 001°54'0 0.0
2014-Oct-18 19:33N 46°18' W 001°54'0 0.0
2014-Oct-18 18:33N 46°18' W 001°54'0 0.0
2014-Oct-18 17:33N 46°18' W 001°54'0 0.0
2014-Oct-18 16:26N 46°18' W 001°54'0 0.0
2014-Oct-18 15:32N 46°18' W 001°54'0 0.0
2014-Oct-18 14:26N 46°18' W 001°54'2 2.5
2014-Oct-18 13:31N 46°15' W 001°54'1 1.5
2014-Oct-18 12:33N 46°17' W 001°54'1 1.0
2014-Oct-18 11:33N 46°16' W 001°54'2 2.1
2014-Oct-18 10:33N 46°17' W 001°56'0 0.1
2014-Oct-18 09:32N 46°17' W 001°56'1 0.7
2014-Oct-18 08:33N 46°17' W 001°55'0 0.3
2014-Oct-18 07:33N 46°17' W 001°55'0 0.5
2014-Oct-18 06:33N 46°17' W 001°54'1 0.7
2014-Oct-18 05:33N 46°16' W 001°54'1 1.2
2014-Oct-18 04:32N 46°17' W 001°55'1 0.7
2014-Oct-18 03:33N 46°18' W 001°55'1 0.8
2014-Oct-18 02:33N 46°17' W 001°54'3 2.5
2014-Oct-18 01:33N 46°20' W 001°54'9 8.8
2014-Oct-18 00:33N 46°28' W 001°48'2 2.2
2014-Oct-17 23:33N 46°30' W 001°47'0 0.0
2014-Oct-17 22:34N 46°30' W 001°47'0 0.0
2014-Oct-17 21:34N 46°30' W 001°47'0 0.0
2014-Oct-17 20:33N 46°30' W 001°47'0 0.0
2014-Oct-17 19:34N 46°30' W 001°47'1 1.2
2014-Oct-17 18:33N 46°29' W 001°47'1010.1
2014-Oct-17 17:33N 46°20' W 001°55'4 4.4
2014-Oct-17 16:33N 46°16' W 001°54'1 0.5
2014-Oct-17 15:33N 46°16' W 001°55'1 1.0
2014-Oct-17 14:33N 46°17' W 001°54'1 0.7
2014-Oct-17 13:33N 46°17' W 001°55'2 1.9
2014-Oct-17 12:34N 46°15' W 001°54'1 1.2
2014-Oct-17 11:31N 46°16' W 001°55'1 1.2
2014-Oct-17 10:33N 46°15' W 001°54'1 0.9
2014-Oct-17 09:33N 46°16' W 001°54'1 0.8
2014-Oct-17 08:33N 46°17' W 001°54'1 0.7
2014-Oct-17 07:33N 46°16' W 001°54'15 1.3
2014-Oct-16 20:16N 46°30' W 001°47'0 0.0
2014-Oct-16 19:33N 46°30' W 001°47'0 0.0
2014-Oct-16 18:33N 46°30' W 001°47'0 0.0
2014-Oct-16 17:33N 46°30' W 001°47'0 0.0
2014-Oct-16 16:33N 46°30' W 001°47'0 0.0
2014-Oct-16 15:33N 46°30' W 001°47'3 3.3
2014-Oct-16 14:33N 46°27' W 001°48'10 9.7
2014-Oct-16 13:33N 46°18' W 001°53'1 1.5
2014-Oct-16 12:33N 46°16' W 001°55'3 2.3
2014-Oct-16 11:15N 46°15' W 001°58'2 1.1
2014-Oct-16 09:33N 46°17' W 002°00'2 1.6
2014-Oct-16 08:30N 46°15' W 001°59'2 0.6
2014-Oct-16 05:26N 46°17' W 001°60'1 1.1
2014-Oct-16 04:32N 46°16' W 001°59'0 0.3
2014-Oct-16 03:16N 46°16' W 001°58'1 2.1
2014-Oct-16 02:33N 46°17' W 001°59'9 8.8
2014-Oct-16 01:33N 46°24' W 001°51'6 6.3
2014-Oct-16 00:33N 46°30' W 001°47'0 0.0
2014-Oct-15 23:33N 46°30' W 001°47'0 0.0
2014-Oct-15 22:33N 46°30' W 001°47'0 0.0
2014-Oct-15 21:33N 46°30' W 001°47'0 0.0
2014-Oct-15 20:33N 46°30' W 001°47'0 0.0
2014-Oct-15 19:33N 46°30' W 001°47'0 0.0
2014-Oct-15 18:33N 46°30' W 001°47'0 0.0
2014-Oct-15 17:33N 46°30' W 001°47'0 0.0
2014-Oct-15 16:33N 46°30' W 001°47'0 0.0
2014-Oct-15 15:33N 46°30' W 001°47'0 0.0
2014-Oct-15 14:33N 46°30' W 001°47'0 0.0
2014-Oct-15 13:33N 46°30' W 001°47'0 0.0
2014-Oct-15 12:33N 46°30' W 001°47'0 0.0
2014-Oct-15 11:33N 46°30' W 001°47'7 7.0
2014-Oct-15 10:33N 46°24' W 001°53'9 2.0
2014-Oct-15 06:21N 46°17' W 001°60'1 1.4
2014-Oct-15 05:33N 46°16' W 001°59'1 0.8
2014-Oct-15 04:17N 46°17' W 001°60'1 1.3
2014-Oct-15 03:28N 46°16' W 001°59'3 1.5
2014-Oct-15 01:33N 46°19' W 001°58'9 9.0
2014-Oct-15 00:33N 46°26' W 001°50'4 4.3
2014-Oct-14 23:33N 46°30' W 001°47'0 0.0
2014-Oct-14 22:33N 46°30' W 001°47'0 0.0
2014-Oct-14 21:33N 46°30' W 001°47'0 0.0
2014-Oct-14 20:33N 46°30' W 001°47'0 0.0
2014-Oct-14 19:33N 46°30' W 001°47'0 0.0
2014-Oct-14 18:33N 46°30' W 001°47'0 0.0
2014-Oct-14 17:33N 46°30' W 001°47'0 0.0
2014-Oct-14 16:33N 46°30' W 001°47'0 0.0
2014-Oct-14 15:33N 46°30' W 001°47'0 0.0
2014-Oct-14 14:33N 46°30' W 001°47'0 0.0
2014-Oct-14 13:33N 46°30' W 001°47'5 4.6
2014-Oct-14 12:33N 46°26' W 001°50'12 1.7
2014-Oct-14 05:30N 46°16' W 001°59'1 1.0
2014-Oct-14 04:29N 46°17' W 001°60'1 1.4
2014-Oct-14 03:33N 46°16' W 001°59'3 1.3
2014-Oct-14 01:33N 46°18' W 001°58'9 9.4
2014-Oct-14 00:33N 46°26' W 001°50'4 4.5
2014-Oct-13 23:33N 46°30' W 001°47'0 0.0
2014-Oct-13 22:33N 46°30' W 001°47'0 0.0
2014-Oct-13 21:33N 46°30' W 001°47'0 0.0
2014-Oct-13 20:34N 46°30' W 001°47'0 0.0
2014-Oct-13 19:33N 46°30' W 001°47'0 0.0
2014-Oct-13 18:33N 46°30' W 001°47'0 0.0
2014-Oct-13 17:33N 46°30' W 001°47'0 0.0
2014-Oct-13 16:33N 46°30' W 001°47'0 0.0
2014-Oct-13 15:33N 46°30' W 001°47'0 0.0
2014-Oct-13 14:33N 46°30' W 001°47'8 7.9
2014-Oct-13 13:33N 46°23' W 001°53'9 8.5
2014-Oct-13 12:32N 46°15' W 001°59'2 1.8
2014-Oct-13 11:31N 46°17' W 001°60'3 3.5
2014-Oct-13 10:33N 46°19' W 001°55'8 7.8
2014-Oct-13 09:33N 46°25' W 001°48'5 5.2
2014-Oct-13 08:33N 46°30' W 001°47'0 0.0
2014-Oct-13 07:33N 46°30' W 001°47'0 0.2
2014-Oct-13 06:33N 46°30' W 001°47'  

Dump ship's entire track history